sensor_id;sensor_type;location;lat;lon;timestamp;P1;durP1;ratioP1;P2;durP2;ratioP2
61250;SDS011;47126;47.508;8.590;2022-12-18T00:00:01;77.03;;;33.10;;
61250;SDS011;47126;47.508;8.590;2022-12-18T00:02:27;90.55;;;36.70;;
61250;SDS011;47126;47.508;8.590;2022-12-18T00:04:53;86.45;;;36.65;;
61250;SDS011;47126;47.508;8.590;2022-12-18T00:07:19;78.70;;;33.55;;
61250;SDS011;47126;47.508;8.590;2022-12-18T00:09:45;80.05;;;35.67;;
61250;SDS011;47126;47.508;8.590;2022-12-18T00:12:11;73.97;;;32.92;;
61250;SDS011;47126;47.508;8.590;2022-12-18T00:14:37;77.43;;;34.03;;
61250;SDS011;47126;47.508;8.590;2022-12-18T00:17:03;80.43;;;36.83;;
61250;SDS011;47126;47.508;8.590;2022-12-18T00:19:29;84.18;;;34.85;;
61250;SDS011;47126;47.508;8.590;2022-12-18T00:21:55;82.10;;;35.47;;
61250;SDS011;47126;47.508;8.590;2022-12-18T00:24:23;79.57;;;35.90;;
61250;SDS011;47126;47.508;8.590;2022-12-18T00:26:49;80.63;;;35.38;;
61250;SDS011;47126;47.508;8.590;2022-12-18T00:29:15;84.72;;;35.22;;
61250;SDS011;47126;47.508;8.590;2022-12-18T00:31:41;80.20;;;34.17;;
61250;SDS011;47126;47.508;8.590;2022-12-18T00:34:11;82.40;;;36.92;;
61250;SDS011;47126;47.508;8.590;2022-12-18T00:36:37;87.55;;;39.15;;
61250;SDS011;47126;47.508;8.590;2022-12-18T00:39:04;88.53;;;36.28;;
61250;SDS011;47126;47.508;8.590;2022-12-18T00:41:30;93.85;;;37.70;;
61250;SDS011;47126;47.508;8.590;2022-12-18T00:44:16;87.63;;;36.45;;
61250;SDS011;47126;47.508;8.590;2022-12-18T00:46:42;90.82;;;35.60;;
61250;SDS011;47126;47.508;8.590;2022-12-18T00:49:09;89.55;;;36.75;;
61250;SDS011;47126;47.508;8.590;2022-12-18T00:51:35;96.47;;;39.13;;
61250;SDS011;47126;47.508;8.590;2022-12-18T00:54:01;84.05;;;36.13;;
61250;SDS011;47126;47.508;8.590;2022-12-18T00:56:27;89.65;;;38.80;;
61250;SDS011;47126;47.508;8.590;2022-12-18T00:58:53;81.53;;;35.28;;
61250;SDS011;47126;47.508;8.590;2022-12-18T01:01:19;86.53;;;36.03;;
61250;SDS011;47126;47.508;8.590;2022-12-18T01:03:45;85.95;;;36.55;;
61250;SDS011;47126;47.508;8.590;2022-12-18T01:06:12;84.32;;;35.78;;
61250;SDS011;47126;47.508;8.590;2022-12-18T01:08:38;83.43;;;35.28;;
61250;SDS011;47126;47.508;8.590;2022-12-18T01:11:08;90.88;;;36.17;;
61250;SDS011;47126;47.508;8.590;2022-12-18T01:13:34;88.30;;;38.17;;
61250;SDS011;47126;47.508;8.590;2022-12-18T01:16:00;87.18;;;36.83;;
61250;SDS011;47126;47.508;8.590;2022-12-18T01:18:26;103.55;;;40.15;;
61250;SDS011;47126;47.508;8.590;2022-12-18T01:20:52;89.00;;;36.08;;
61250;SDS011;47126;47.508;8.590;2022-12-18T01:23:18;87.15;;;36.95;;
61250;SDS011;47126;47.508;8.590;2022-12-18T01:25:44;88.55;;;36.55;;
61250;SDS011;47126;47.508;8.590;2022-12-18T01:28:10;99.50;;;37.85;;
61250;SDS011;47126;47.508;8.590;2022-12-18T01:30:36;106.45;;;38.70;;
61250;SDS011;47126;47.508;8.590;2022-12-18T01:33:04;103.55;;;39.25;;
61250;SDS011;47126;47.508;8.590;2022-12-18T01:35:30;108.57;;;38.15;;
61250;SDS011;47126;47.508;8.590;2022-12-18T01:37:57;84.90;;;36.70;;
61250;SDS011;47126;47.508;8.590;2022-12-18T01:40:23;98.47;;;37.45;;
61250;SDS011;47126;47.508;8.590;2022-12-18T01:42:50;88.38;;;35.30;;
61250;SDS011;47126;47.508;8.590;2022-12-18T01:47:43;93.10;;;36.35;;
61250;SDS011;47126;47.508;8.590;2022-12-18T01:50:11;85.05;;;36.85;;
61250;SDS011;47126;47.508;8.590;2022-12-18T01:52:37;107.50;;;39.15;;
61250;SDS011;47126;47.508;8.590;2022-12-18T01:55:04;94.22;;;35.78;;
61250;SDS011;47126;47.508;8.590;2022-12-18T01:57:30;90.65;;;35.38;;
61250;SDS011;47126;47.508;8.590;2022-12-18T01:59:59;91.40;;;37.17;;
61250;SDS011;47126;47.508;8.590;2022-12-18T02:02:26;83.47;;;36.47;;
61250;SDS011;47126;47.508;8.590;2022-12-18T02:04:53;91.35;;;34.65;;
61250;SDS011;47126;47.508;8.590;2022-12-18T02:07:22;90.30;;;36.38;;
61250;SDS011;47126;47.508;8.590;2022-12-18T02:12:20;86.60;;;34.25;;
61250;SDS011;47126;47.508;8.590;2022-12-18T02:15:05;97.13;;;36.72;;
61250;SDS011;47126;47.508;8.590;2022-12-18T02:17:37;96.00;;;36.72;;
61250;SDS011;47126;47.508;8.590;2022-12-18T02:22:41;92.43;;;35.63;;
61250;SDS011;47126;47.508;8.590;2022-12-18T02:27:38;101.63;;;36.42;;
61250;SDS011;47126;47.508;8.590;2022-12-18T02:30:05;98.78;;;36.15;;
61250;SDS011;47126;47.508;8.590;2022-12-18T02:32:37;96.15;;;36.90;;
61250;SDS011;47126;47.508;8.590;2022-12-18T02:35:05;92.03;;;36.65;;
61250;SDS011;47126;47.508;8.590;2022-12-18T02:37:32;101.82;;;37.45;;
61250;SDS011;47126;47.508;8.590;2022-12-18T02:39:59;99.20;;;37.00;;
61250;SDS011;47126;47.508;8.590;2022-12-18T02:42:25;94.82;;;35.08;;
61250;SDS011;47126;47.508;8.590;2022-12-18T02:44:53;96.45;;;37.58;;
61250;SDS011;47126;47.508;8.590;2022-12-18T02:47:20;91.78;;;34.78;;
61250;SDS011;47126;47.508;8.590;2022-12-18T02:55:00;88.50;;;33.95;;
61250;SDS011;47126;47.508;8.590;2022-12-18T02:57:35;92.35;;;36.13;;
61250;SDS011;47126;47.508;8.590;2022-12-18T03:00:12;95.82;;;36.15;;
61250;SDS011;47126;47.508;8.590;2022-12-18T03:10:31;100.53;;;37.10;;
61250;SDS011;47126;47.508;8.590;2022-12-18T03:13:01;94.05;;;35.53;;
61250;SDS011;47126;47.508;8.590;2022-12-18T03:15:28;91.70;;;34.47;;
61250;SDS011;47126;47.508;8.590;2022-12-18T03:17:57;94.68;;;33.83;;
61250;SDS011;47126;47.508;8.590;2022-12-18T03:20:23;100.60;;;34.47;;
61250;SDS011;47126;47.508;8.590;2022-12-18T03:22:51;96.00;;;33.45;;
61250;SDS011;47126;47.508;8.590;2022-12-18T03:25:19;99.20;;;35.58;;
61250;SDS011;47126;47.508;8.590;2022-12-18T03:27:46;92.93;;;34.47;;
61250;SDS011;47126;47.508;8.590;2022-12-18T03:30:14;93.40;;;33.08;;
61250;SDS011;47126;47.508;8.590;2022-12-18T03:35:06;100.00;;;35.75;;
61250;SDS011;47126;47.508;8.590;2022-12-18T03:37:34;93.97;;;34.88;;
61250;SDS011;47126;47.508;8.590;2022-12-18T03:40:00;96.85;;;35.15;;
61250;SDS011;47126;47.508;8.590;2022-12-18T03:42:32;107.32;;;34.47;;
61250;SDS011;47126;47.508;8.590;2022-12-18T03:45:36;101.15;;;36.63;;
61250;SDS011;47126;47.508;8.590;2022-12-18T03:53:17;96.05;;;36.25;;
61250;SDS011;47126;47.508;8.590;2022-12-18T03:55:44;94.03;;;35.05;;
61250;SDS011;47126;47.508;8.590;2022-12-18T03:58:11;106.13;;;36.80;;
61250;SDS011;47126;47.508;8.590;2022-12-18T04:00:38;114.30;;;37.47;;
61250;SDS011;47126;47.508;8.590;2022-12-18T04:03:04;104.22;;;36.28;;
61250;SDS011;47126;47.508;8.590;2022-12-18T04:05:31;108.80;;;38.45;;
61250;SDS011;47126;47.508;8.590;2022-12-18T04:07:59;94.57;;;35.67;;
61250;SDS011;47126;47.508;8.590;2022-12-18T04:10:25;98.57;;;36.55;;
61250;SDS011;47126;47.508;8.590;2022-12-18T04:12:51;99.00;;;35.17;;
61250;SDS011;47126;47.508;8.590;2022-12-18T04:15:21;90.70;;;35.20;;
61250;SDS011;47126;47.508;8.590;2022-12-18T04:17:47;107.57;;;36.17;;
61250;SDS011;47126;47.508;8.590;2022-12-18T04:20:14;100.60;;;35.72;;
61250;SDS011;47126;47.508;8.590;2022-12-18T04:22:40;93.22;;;35.10;;
61250;SDS011;47126;47.508;8.590;2022-12-18T04:25:06;107.68;;;37.28;;
61250;SDS011;47126;47.508;8.590;2022-12-18T04:27:32;98.80;;;37.33;;
61250;SDS011;47126;47.508;8.590;2022-12-18T04:29:58;104.10;;;36.83;;
61250;SDS011;47126;47.508;8.590;2022-12-18T04:32:24;96.35;;;36.90;;
61250;SDS011;47126;47.508;8.590;2022-12-18T04:34:50;96.05;;;35.88;;
61250;SDS011;47126;47.508;8.590;2022-12-18T04:37:16;95.85;;;35.20;;
61250;SDS011;47126;47.508;8.590;2022-12-18T04:39:42;96.45;;;35.22;;
61250;SDS011;47126;47.508;8.590;2022-12-18T04:42:08;104.60;;;37.97;;
61250;SDS011;47126;47.508;8.590;2022-12-18T04:44:34;99.68;;;35.60;;
61250;SDS011;47126;47.508;8.590;2022-12-18T04:47:00;97.93;;;37.05;;
61250;SDS011;47126;47.508;8.590;2022-12-18T04:49:26;99.55;;;37.67;;
61250;SDS011;47126;47.508;8.590;2022-12-18T04:51:52;105.63;;;35.10;;
61250;SDS011;47126;47.508;8.590;2022-12-18T04:54:18;96.40;;;36.30;;
61250;SDS011;47126;47.508;8.590;2022-12-18T04:56:44;104.30;;;36.22;;
61250;SDS011;47126;47.508;8.590;2022-12-18T04:59:10;98.95;;;36.67;;
61250;SDS011;47126;47.508;8.590;2022-12-18T05:01:36;100.20;;;35.95;;
61250;SDS011;47126;47.508;8.590;2022-12-18T05:04:02;106.55;;;37.10;;
61250;SDS011;47126;47.508;8.590;2022-12-18T05:06:29;104.20;;;37.78;;
61250;SDS011;47126;47.508;8.590;2022-12-18T05:08:55;99.70;;;36.53;;
61250;SDS011;47126;47.508;8.590;2022-12-18T05:11:21;99.05;;;37.00;;
61250;SDS011;47126;47.508;8.590;2022-12-18T05:13:47;100.68;;;36.50;;
61250;SDS011;47126;47.508;8.590;2022-12-18T05:16:13;101.75;;;36.47;;
61250;SDS011;47126;47.508;8.590;2022-12-18T05:18:39;100.43;;;37.55;;
61250;SDS011;47126;47.508;8.590;2022-12-18T05:21:05;100.95;;;35.20;;
61250;SDS011;47126;47.508;8.590;2022-12-18T05:23:31;95.82;;;35.22;;
61250;SDS011;47126;47.508;8.590;2022-12-18T05:26:00;90.72;;;34.67;;
61250;SDS011;47126;47.508;8.590;2022-12-18T05:28:27;94.57;;;35.42;;
61250;SDS011;47126;47.508;8.590;2022-12-18T05:30:54;102.05;;;36.28;;
61250;SDS011;47126;47.508;8.590;2022-12-18T05:33:21;112.47;;;35.72;;
61250;SDS011;47126;47.508;8.590;2022-12-18T05:35:51;95.50;;;35.55;;
61250;SDS011;47126;47.508;8.590;2022-12-18T05:38:18;94.20;;;34.22;;
61250;SDS011;47126;47.508;8.590;2022-12-18T05:40:44;98.57;;;36.85;;
61250;SDS011;47126;47.508;8.590;2022-12-18T05:43:11;105.63;;;36.22;;
61250;SDS011;47126;47.508;8.590;2022-12-18T05:45:37;100.93;;;38.20;;
61250;SDS011;47126;47.508;8.590;2022-12-18T05:48:04;110.43;;;35.08;;
61250;SDS011;47126;47.508;8.590;2022-12-18T05:50:30;96.05;;;35.25;;
61250;SDS011;47126;47.508;8.590;2022-12-18T05:52:56;107.07;;;36.97;;
61250;SDS011;47126;47.508;8.590;2022-12-18T05:55:22;106.68;;;37.20;;
61250;SDS011;47126;47.508;8.590;2022-12-18T05:57:48;94.18;;;35.50;;
61250;SDS011;47126;47.508;8.590;2022-12-18T06:00:14;97.50;;;35.92;;
61250;SDS011;47126;47.508;8.590;2022-12-18T06:02:40;95.72;;;34.78;;
61250;SDS011;47126;47.508;8.590;2022-12-18T06:05:06;104.72;;;36.25;;
61250;SDS011;47126;47.508;8.590;2022-12-18T06:07:32;94.68;;;34.85;;
61250;SDS011;47126;47.508;8.590;2022-12-18T06:09:58;95.78;;;34.78;;
61250;SDS011;47126;47.508;8.590;2022-12-18T06:12:24;109.45;;;38.83;;
61250;SDS011;47126;47.508;8.590;2022-12-18T06:14:50;109.22;;;37.00;;
61250;SDS011;47126;47.508;8.590;2022-12-18T06:17:16;110.25;;;38.40;;
61250;SDS011;47126;47.508;8.590;2022-12-18T06:19:43;104.80;;;35.65;;
61250;SDS011;47126;47.508;8.590;2022-12-18T06:22:09;109.82;;;37.83;;
61250;SDS011;47126;47.508;8.590;2022-12-18T06:24:35;98.72;;;36.33;;
61250;SDS011;47126;47.508;8.590;2022-12-18T06:27:01;106.07;;;36.75;;
61250;SDS011;47126;47.508;8.590;2022-12-18T06:29:27;91.45;;;32.45;;
61250;SDS011;47126;47.508;8.590;2022-12-18T06:31:53;92.47;;;35.50;;
61250;SDS011;47126;47.508;8.590;2022-12-18T06:34:19;95.72;;;32.42;;
61250;SDS011;47126;47.508;8.590;2022-12-18T06:36:45;89.57;;;33.47;;
61250;SDS011;47126;47.508;8.590;2022-12-18T06:39:11;95.57;;;34.78;;
61250;SDS011;47126;47.508;8.590;2022-12-18T06:41:37;91.47;;;33.50;;
61250;SDS011;47126;47.508;8.590;2022-12-18T06:44:03;97.20;;;35.50;;
61250;SDS011;47126;47.508;8.590;2022-12-18T06:46:29;87.88;;;33.80;;
61250;SDS011;47126;47.508;8.590;2022-12-18T06:48:57;100.28;;;34.35;;
61250;SDS011;47126;47.508;8.590;2022-12-18T06:51:23;86.10;;;33.08;;
61250;SDS011;47126;47.508;8.590;2022-12-18T06:53:49;86.30;;;33.13;;
61250;SDS011;47126;47.508;8.590;2022-12-18T06:56:15;96.40;;;34.03;;
61250;SDS011;47126;47.508;8.590;2022-12-18T06:58:41;96.15;;;34.10;;
61250;SDS011;47126;47.508;8.590;2022-12-18T07:01:09;100.97;;;35.17;;
61250;SDS011;47126;47.508;8.590;2022-12-18T07:03:36;95.38;;;35.10;;
61250;SDS011;47126;47.508;8.590;2022-12-18T07:06:02;92.72;;;35.03;;
61250;SDS011;47126;47.508;8.590;2022-12-18T07:08:29;100.60;;;35.35;;
61250;SDS011;47126;47.508;8.590;2022-12-18T07:10:55;102.80;;;34.85;;
61250;SDS011;47126;47.508;8.590;2022-12-18T07:13:21;92.07;;;32.22;;
61250;SDS011;47126;47.508;8.590;2022-12-18T07:15:47;85.07;;;33.60;;
61250;SDS011;47126;47.508;8.590;2022-12-18T07:18:13;104.30;;;34.38;;
61250;SDS011;47126;47.508;8.590;2022-12-18T07:20:39;88.13;;;31.60;;
61250;SDS011;47126;47.508;8.590;2022-12-18T07:23:05;93.85;;;33.30;;
61250;SDS011;47126;47.508;8.590;2022-12-18T07:25:35;98.07;;;34.80;;
61250;SDS011;47126;47.508;8.590;2022-12-18T07:28:01;107.60;;;37.10;;
61250;SDS011;47126;47.508;8.590;2022-12-18T07:30:27;105.97;;;37.88;;
61250;SDS011;47126;47.508;8.590;2022-12-18T07:32:53;89.78;;;34.63;;
61250;SDS011;47126;47.508;8.590;2022-12-18T07:35:19;98.88;;;35.83;;
61250;SDS011;47126;47.508;8.590;2022-12-18T07:37:45;99.63;;;35.17;;
61250;SDS011;47126;47.508;8.590;2022-12-18T07:40:11;105.15;;;37.17;;
61250;SDS011;47126;47.508;8.590;2022-12-18T07:42:37;97.90;;;34.72;;
61250;SDS011;47126;47.508;8.590;2022-12-18T07:45:04;97.32;;;33.72;;
61250;SDS011;47126;47.508;8.590;2022-12-18T07:47:30;97.28;;;33.15;;
61250;SDS011;47126;47.508;8.590;2022-12-18T07:49:56;85.72;;;32.22;;
61250;SDS011;47126;47.508;8.590;2022-12-18T07:52:22;79.63;;;31.58;;
61250;SDS011;47126;47.508;8.590;2022-12-18T07:54:48;86.72;;;32.53;;
61250;SDS011;47126;47.508;8.590;2022-12-18T07:57:14;83.50;;;32.20;;
61250;SDS011;47126;47.508;8.590;2022-12-18T07:59:41;91.97;;;33.40;;
61250;SDS011;47126;47.508;8.590;2022-12-18T08:02:07;92.50;;;32.35;;
61250;SDS011;47126;47.508;8.590;2022-12-18T08:04:33;85.82;;;32.25;;
61250;SDS011;47126;47.508;8.590;2022-12-18T08:06:59;84.55;;;31.20;;
61250;SDS011;47126;47.508;8.590;2022-12-18T08:09:25;89.75;;;34.63;;
61250;SDS011;47126;47.508;8.590;2022-12-18T08:11:51;79.35;;;30.38;;
61250;SDS011;47126;47.508;8.590;2022-12-18T08:14:17;86.53;;;33.28;;
61250;SDS011;47126;47.508;8.590;2022-12-18T08:16:43;87.57;;;33.63;;
61250;SDS011;47126;47.508;8.590;2022-12-18T08:19:09;96.00;;;33.00;;
61250;SDS011;47126;47.508;8.590;2022-12-18T08:21:35;89.40;;;33.13;;
61250;SDS011;47126;47.508;8.590;2022-12-18T08:24:01;82.28;;;31.95;;
61250;SDS011;47126;47.508;8.590;2022-12-18T08:26:28;84.95;;;32.13;;
61250;SDS011;47126;47.508;8.590;2022-12-18T08:28:55;84.18;;;31.58;;
61250;SDS011;47126;47.508;8.590;2022-12-18T08:31:21;86.28;;;30.95;;
61250;SDS011;47126;47.508;8.590;2022-12-18T08:33:48;87.30;;;31.42;;
61250;SDS011;47126;47.508;8.590;2022-12-18T08:36:15;86.82;;;31.60;;
61250;SDS011;47126;47.508;8.590;2022-12-18T08:38:41;80.78;;;31.42;;
61250;SDS011;47126;47.508;8.590;2022-12-18T08:41:08;85.03;;;31.55;;
61250;SDS011;47126;47.508;8.590;2022-12-18T08:43:34;87.82;;;31.60;;
61250;SDS011;47126;47.508;8.590;2022-12-18T08:46:19;94.35;;;33.50;;
61250;SDS011;47126;47.508;8.590;2022-12-18T08:48:46;87.75;;;32.17;;
61250;SDS011;47126;47.508;8.590;2022-12-18T08:51:12;87.93;;;34.20;;
61250;SDS011;47126;47.508;8.590;2022-12-18T08:53:38;89.72;;;32.15;;
61250;SDS011;47126;47.508;8.590;2022-12-18T08:56:04;84.22;;;30.42;;
61250;SDS011;47126;47.508;8.590;2022-12-18T08:58:31;83.63;;;30.70;;
61250;SDS011;47126;47.508;8.590;2022-12-18T09:01:00;84.65;;;33.10;;
61250;SDS011;47126;47.508;8.590;2022-12-18T09:03:27;81.00;;;31.05;;
61250;SDS011;47126;47.508;8.590;2022-12-18T09:05:53;73.32;;;28.45;;
61250;SDS011;47126;47.508;8.590;2022-12-18T09:08:19;69.97;;;27.65;;
61250;SDS011;47126;47.508;8.590;2022-12-18T09:10:45;76.40;;;29.90;;
61250;SDS011;47126;47.508;8.590;2022-12-18T09:13:12;77.40;;;29.45;;
61250;SDS011;47126;47.508;8.590;2022-12-18T09:15:45;73.88;;;28.10;;
61250;SDS011;47126;47.508;8.590;2022-12-18T09:18:12;75.68;;;30.83;;
61250;SDS011;47126;47.508;8.590;2022-12-18T09:20:38;77.07;;;30.48;;
61250;SDS011;47126;47.508;8.590;2022-12-18T09:23:05;70.22;;;28.50;;
61250;SDS011;47126;47.508;8.590;2022-12-18T09:25:31;72.30;;;30.00;;
61250;SDS011;47126;47.508;8.590;2022-12-18T09:28:13;68.93;;;27.90;;
61250;SDS011;47126;47.508;8.590;2022-12-18T09:30:40;74.22;;;29.08;;
61250;SDS011;47126;47.508;8.590;2022-12-18T09:33:06;65.78;;;27.10;;
61250;SDS011;47126;47.508;8.590;2022-12-18T09:35:32;70.13;;;27.63;;
61250;SDS011;47126;47.508;8.590;2022-12-18T09:38:01;63.10;;;24.80;;
61250;SDS011;47126;47.508;8.590;2022-12-18T09:40:28;65.18;;;26.92;;
61250;SDS011;47126;47.508;8.590;2022-12-18T09:42:59;67.80;;;28.80;;
61250;SDS011;47126;47.508;8.590;2022-12-18T09:45:26;67.03;;;27.90;;
61250;SDS011;47126;47.508;8.590;2022-12-18T09:47:53;63.03;;;25.50;;
61250;SDS011;47126;47.508;8.590;2022-12-18T09:52:47;70.03;;;27.80;;
61250;SDS011;47126;47.508;8.590;2022-12-18T09:57:45;70.72;;;28.13;;
61250;SDS011;47126;47.508;8.590;2022-12-18T10:00:15;65.43;;;26.38;;
61250;SDS011;47126;47.508;8.590;2022-12-18T10:02:43;72.53;;;29.50;;
61250;SDS011;47126;47.508;8.590;2022-12-18T10:05:16;73.80;;;29.67;;
61250;SDS011;47126;47.508;8.590;2022-12-18T10:07:59;74.85;;;27.88;;
61250;SDS011;47126;47.508;8.590;2022-12-18T10:17:55;65.85;;;26.02;;
61250;SDS011;47126;47.508;8.590;2022-12-18T10:20:33;70.68;;;28.35;;
61250;SDS011;47126;47.508;8.590;2022-12-18T10:25:28;67.38;;;27.05;;
61250;SDS011;47126;47.508;8.590;2022-12-18T10:27:58;68.75;;;27.77;;
61250;SDS011;47126;47.508;8.590;2022-12-18T10:30:26;68.80;;;28.73;;
61250;SDS011;47126;47.508;8.590;2022-12-18T10:32:52;66.47;;;28.63;;
61250;SDS011;47126;47.508;8.590;2022-12-18T10:35:23;69.95;;;28.25;;
61250;SDS011;47126;47.508;8.590;2022-12-18T10:40:28;66.80;;;27.42;;
61250;SDS011;47126;47.508;8.590;2022-12-18T10:46:34;65.47;;;27.02;;
61250;SDS011;47126;47.508;8.590;2022-12-18T10:48:56;61.33;;;26.38;;
61250;SDS011;47126;47.508;8.590;2022-12-18T10:53:56;74.35;;;28.85;;
61250;SDS011;47126;47.508;8.590;2022-12-18T10:56:23;69.85;;;27.77;;
61250;SDS011;47126;47.508;8.590;2022-12-18T10:59:00;66.68;;;28.30;;
61250;SDS011;47126;47.508;8.590;2022-12-18T11:01:26;69.72;;;26.75;;
61250;SDS011;47126;47.508;8.590;2022-12-18T11:06:20;62.55;;;26.48;;
61250;SDS011;47126;47.508;8.590;2022-12-18T11:11:34;64.10;;;26.98;;
61250;SDS011;47126;47.508;8.590;2022-12-18T11:16:53;72.22;;;29.92;;
61250;SDS011;47126;47.508;8.590;2022-12-18T11:19:24;62.80;;;27.75;;
61250;SDS011;47126;47.508;8.590;2022-12-18T11:24:23;60.88;;;24.73;;
61250;SDS011;47126;47.508;8.590;2022-12-18T11:26:51;69.25;;;28.13;;
61250;SDS011;47126;47.508;8.590;2022-12-18T11:29:20;65.45;;;26.67;;
61250;SDS011;47126;47.508;8.590;2022-12-18T11:31:49;63.60;;;27.25;;
61250;SDS011;47126;47.508;8.590;2022-12-18T11:36:47;65.47;;;26.52;;
61250;SDS011;47126;47.508;8.590;2022-12-18T11:39:18;61.50;;;25.17;;
61250;SDS011;47126;47.508;8.590;2022-12-18T11:44:32;60.05;;;24.45;;
61250;SDS011;47126;47.508;8.590;2022-12-18T11:47:03;63.20;;;27.38;;
61250;SDS011;47126;47.508;8.590;2022-12-18T11:49:34;64.88;;;26.88;;
61250;SDS011;47126;47.508;8.590;2022-12-18T11:54:36;60.17;;;25.88;;
61250;SDS011;47126;47.508;8.590;2022-12-18T11:57:05;59.70;;;26.10;;
61250;SDS011;47126;47.508;8.590;2022-12-18T12:05:03;58.50;;;24.15;;
61250;SDS011;47126;47.508;8.590;2022-12-18T12:10:09;60.50;;;25.80;;
61250;SDS011;47126;47.508;8.590;2022-12-18T12:15:43;64.85;;;25.30;;
61250;SDS011;47126;47.508;8.590;2022-12-18T12:23:23;63.15;;;26.77;;
61250;SDS011;47126;47.508;8.590;2022-12-18T12:25:59;73.20;;;29.58;;
61250;SDS011;47126;47.508;8.590;2022-12-18T12:31:14;66.97;;;28.45;;
61250;SDS011;47126;47.508;8.590;2022-12-18T12:33:48;65.80;;;27.38;;
61250;SDS011;47126;47.508;8.590;2022-12-18T12:38:57;67.13;;;28.23;;
61250;SDS011;47126;47.508;8.590;2022-12-18T12:41:27;65.90;;;29.02;;
61250;SDS011;47126;47.508;8.590;2022-12-18T12:44:16;67.82;;;26.65;;
61250;SDS011;47126;47.508;8.590;2022-12-18T12:46:43;68.68;;;26.45;;
61250;SDS011;47126;47.508;8.590;2022-12-18T12:49:11;67.15;;;27.67;;
61250;SDS011;47126;47.508;8.590;2022-12-18T12:51:39;66.22;;;27.25;;
61250;SDS011;47126;47.508;8.590;2022-12-18T12:54:10;71.72;;;27.65;;
61250;SDS011;47126;47.508;8.590;2022-12-18T12:56:55;69.93;;;28.63;;
61250;SDS011;47126;47.508;8.590;2022-12-18T13:07:23;63.30;;;26.00;;
61250;SDS011;47126;47.508;8.590;2022-12-18T13:17:48;66.68;;;27.67;;
61250;SDS011;47126;47.508;8.590;2022-12-18T13:20:15;67.53;;;27.52;;
61250;SDS011;47126;47.508;8.590;2022-12-18T13:22:45;63.20;;;26.85;;
61250;SDS011;47126;47.508;8.590;2022-12-18T13:30:53;68.90;;;27.23;;
61250;SDS011;47126;47.508;8.590;2022-12-18T13:36:09;68.75;;;27.88;;
61250;SDS011;47126;47.508;8.590;2022-12-18T13:38:36;65.53;;;27.95;;
61250;SDS011;47126;47.508;8.590;2022-12-18T13:41:04;66.97;;;28.27;;
61250;SDS011;47126;47.508;8.590;2022-12-18T13:43:47;66.57;;;27.73;;
61250;SDS011;47126;47.508;8.590;2022-12-18T13:46:21;73.63;;;28.10;;
61250;SDS011;47126;47.508;8.590;2022-12-18T13:48:52;65.88;;;27.15;;
61250;SDS011;47126;47.508;8.590;2022-12-18T13:51:19;65.10;;;26.92;;
61250;SDS011;47126;47.508;8.590;2022-12-18T13:53:48;67.72;;;27.40;;
61250;SDS011;47126;47.508;8.590;2022-12-18T13:56:20;73.18;;;27.58;;
61250;SDS011;47126;47.508;8.590;2022-12-18T13:59:03;65.50;;;25.85;;
61250;SDS011;47126;47.508;8.590;2022-12-18T14:01:29;72.28;;;28.33;;
61250;SDS011;47126;47.508;8.590;2022-12-18T14:04:08;67.57;;;27.75;;
61250;SDS011;47126;47.508;8.590;2022-12-18T14:06:34;67.53;;;27.23;;
61250;SDS011;47126;47.508;8.590;2022-12-18T14:09:00;64.38;;;26.85;;
61250;SDS011;47126;47.508;8.590;2022-12-18T14:11:27;66.65;;;28.27;;
61250;SDS011;47126;47.508;8.590;2022-12-18T14:13:54;68.00;;;28.35;;
61250;SDS011;47126;47.508;8.590;2022-12-18T14:16:20;67.25;;;27.85;;
61250;SDS011;47126;47.508;8.590;2022-12-18T14:21:18;72.15;;;28.75;;
61250;SDS011;47126;47.508;8.590;2022-12-18T14:23:45;75.40;;;27.08;;
61250;SDS011;47126;47.508;8.590;2022-12-18T14:26:22;64.95;;;26.27;;
61250;SDS011;47126;47.508;8.590;2022-12-18T14:28:49;68.97;;;27.52;;
61250;SDS011;47126;47.508;8.590;2022-12-18T14:31:26;74.10;;;28.73;;
61250;SDS011;47126;47.508;8.590;2022-12-18T14:33:52;71.70;;;29.33;;
61250;SDS011;47126;47.508;8.590;2022-12-18T14:36:19;70.43;;;28.40;;
61250;SDS011;47126;47.508;8.590;2022-12-18T14:38:50;64.22;;;27.60;;
61250;SDS011;47126;47.508;8.590;2022-12-18T14:41:17;73.15;;;30.33;;
61250;SDS011;47126;47.508;8.590;2022-12-18T14:43:45;70.45;;;28.10;;
61250;SDS011;47126;47.508;8.590;2022-12-18T14:46:32;78.57;;;29.27;;
61250;SDS011;47126;47.508;8.590;2022-12-18T14:51:51;71.82;;;28.52;;
61250;SDS011;47126;47.508;8.590;2022-12-18T14:54:18;66.55;;;27.00;;
61250;SDS011;47126;47.508;8.590;2022-12-18T14:56:46;75.00;;;28.42;;
61250;SDS011;47126;47.508;8.590;2022-12-18T14:59:13;63.67;;;25.75;;
61250;SDS011;47126;47.508;8.590;2022-12-18T15:04:34;64.55;;;26.58;;
61250;SDS011;47126;47.508;8.590;2022-12-18T15:07:05;65.43;;;27.25;;
61250;SDS011;47126;47.508;8.590;2022-12-18T15:09:33;71.95;;;27.10;;
61250;SDS011;47126;47.508;8.590;2022-12-18T15:12:00;71.93;;;27.95;;
61250;SDS011;47126;47.508;8.590;2022-12-18T15:16:59;67.03;;;27.42;;
61250;SDS011;47126;47.508;8.590;2022-12-18T15:19:38;64.80;;;25.55;;
61250;SDS011;47126;47.508;8.590;2022-12-18T15:22:13;69.80;;;28.35;;
61250;SDS011;47126;47.508;8.590;2022-12-18T15:24:43;65.38;;;26.70;;
61250;SDS011;47126;47.508;8.590;2022-12-18T15:32:35;67.43;;;26.17;;
61250;SDS011;47126;47.508;8.590;2022-12-18T15:35:03;64.00;;;25.92;;
61250;SDS011;47126;47.508;8.590;2022-12-18T15:37:29;63.90;;;24.60;;
61250;SDS011;47126;47.508;8.590;2022-12-18T15:39:55;66.47;;;25.55;;
61250;SDS011;47126;47.508;8.590;2022-12-18T15:42:21;67.82;;;27.63;;
61250;SDS011;47126;47.508;8.590;2022-12-18T15:45:07;58.22;;;23.35;;
61250;SDS011;47126;47.508;8.590;2022-12-18T15:47:34;66.78;;;25.40;;
61250;SDS011;47126;47.508;8.590;2022-12-18T15:50:00;68.80;;;25.80;;
61250;SDS011;47126;47.508;8.590;2022-12-18T15:52:27;62.10;;;24.05;;
61250;SDS011;47126;47.508;8.590;2022-12-18T15:54:53;66.20;;;24.75;;
61250;SDS011;47126;47.508;8.590;2022-12-18T15:57:38;60.53;;;25.35;;
61250;SDS011;47126;47.508;8.590;2022-12-18T16:00:04;62.47;;;23.30;;
61250;SDS011;47126;47.508;8.590;2022-12-18T16:02:30;60.15;;;23.33;;
61250;SDS011;47126;47.508;8.590;2022-12-18T16:04:56;57.30;;;24.98;;
61250;SDS011;47126;47.508;8.590;2022-12-18T16:07:22;67.53;;;25.98;;
61250;SDS011;47126;47.508;8.590;2022-12-18T16:09:49;67.25;;;26.88;;
61250;SDS011;47126;47.508;8.590;2022-12-18T16:12:19;67.13;;;26.75;;
61250;SDS011;47126;47.508;8.590;2022-12-18T16:14:46;60.47;;;26.33;;
61250;SDS011;47126;47.508;8.590;2022-12-18T16:17:13;63.90;;;26.00;;
61250;SDS011;47126;47.508;8.590;2022-12-18T16:19:39;59.83;;;23.33;;
61250;SDS011;47126;47.508;8.590;2022-12-18T16:22:05;59.60;;;22.73;;
61250;SDS011;47126;47.508;8.590;2022-12-18T16:24:32;64.38;;;25.25;;
61250;SDS011;47126;47.508;8.590;2022-12-18T16:27:01;65.75;;;25.50;;
61250;SDS011;47126;47.508;8.590;2022-12-18T16:29:28;70.63;;;24.80;;
61250;SDS011;47126;47.508;8.590;2022-12-18T16:31:54;68.97;;;26.55;;
61250;SDS011;47126;47.508;8.590;2022-12-18T16:34:21;69.90;;;26.15;;
61250;SDS011;47126;47.508;8.590;2022-12-18T16:36:49;73.43;;;25.15;;